createdAt,value
2022-08-16T00:00:03.291Z,24.30
2022-08-16T00:02:33.340Z,24.30
2022-08-16T00:05:00.862Z,24.30
2022-08-16T00:07:29.254Z,24.30
2022-08-16T00:09:57.603Z,24.30
2022-08-16T00:12:29.663Z,24.20
2022-08-16T00:14:58.696Z,24.20
2022-08-16T00:17:28.147Z,24.20
2022-08-16T00:19:55.400Z,24.10
2022-08-16T00:22:24.638Z,24.10
2022-08-16T00:24:55.375Z,24.10
2022-08-16T00:27:23.412Z,24.10
2022-08-16T00:30:08.672Z,24.10
2022-08-16T00:32:40.279Z,24.00
2022-08-16T00:35:15.075Z,24.00
2022-08-16T00:37:58.173Z,24.00
2022-08-16T00:40:34.862Z,23.90
2022-08-16T00:43:12.167Z,23.90
2022-08-16T00:45:57.820Z,23.90
2022-08-16T00:48:31.048Z,23.90
2022-08-16T00:50:59.188Z,23.90
2022-08-16T00:53:26.708Z,23.90
2022-08-16T00:58:34.507Z,23.80
2022-08-16T01:01:03.511Z,23.80
2022-08-16T01:03:36.150Z,23.80
2022-08-16T01:06:39.964Z,23.80
2022-08-16T01:08:53.212Z,23.80
2022-08-16T01:11:22.525Z,23.80
2022-08-16T01:13:50.940Z,23.80
2022-08-16T01:16:23.001Z,23.80
2022-08-16T01:18:56.170Z,23.70
2022-08-16T01:21:33.658Z,23.70
2022-08-16T01:24:53.030Z,23.70
2022-08-16T01:26:58.001Z,23.70
2022-08-16T01:29:58.431Z,23.70
2022-08-16T01:32:31.522Z,23.70
2022-08-16T01:35:01.364Z,23.70
2022-08-16T01:37:35.887Z,23.70
2022-08-16T01:40:06.996Z,23.70
2022-08-16T01:42:34.896Z,23.70
2022-08-16T01:45:01.951Z,23.70
2022-08-16T01:47:29.526Z,23.70
2022-08-16T01:50:42.429Z,23.70
2022-08-16T01:52:48.231Z,23.70
2022-08-16T01:55:35.505Z,23.70
2022-08-16T01:58:05.174Z,23.60
2022-08-16T02:00:33.122Z,23.60
2022-08-16T02:03:00.931Z,23.70
2022-08-16T02:05:30.441Z,23.60
2022-08-16T02:07:58.893Z,23.60
2022-08-16T02:10:26.993Z,23.60
2022-08-16T02:12:55.938Z,23.60
2022-08-16T02:15:28.553Z,23.50
2022-08-16T02:17:58.328Z,23.50
2022-08-16T02:20:27.792Z,23.50
2022-08-16T02:22:55.672Z,23.40
2022-08-16T02:25:23.199Z,23.40
2022-08-16T02:27:51.037Z,23.40
2022-08-16T02:30:35.900Z,23.40
2022-08-16T02:33:07.701Z,23.40
2022-08-16T02:35:49.616Z,23.40
2022-08-16T02:38:23.219Z,23.30
2022-08-16T02:40:51.809Z,23.30
2022-08-16T02:43:26.472Z,23.30
2022-08-16T02:45:54.875Z,23.30
2022-08-16T02:48:29.116Z,23.20
2022-08-16T02:51:07.993Z,23.30
2022-08-16T02:53:40.328Z,23.20
2022-08-16T02:56:09.733Z,23.20
2022-08-16T02:58:37.983Z,23.20
2022-08-16T03:01:07.331Z,23.10
2022-08-16T03:04:40.022Z,23.20
2022-08-16T03:06:41.376Z,23.20
2022-08-16T03:09:21.571Z,23.20
2022-08-16T03:11:53.146Z,23.10
2022-08-16T03:14:24.683Z,23.10
2022-08-16T03:16:59.728Z,23.10
2022-08-16T03:19:42.190Z,23.10
2022-08-16T03:22:19.472Z,23.10
2022-08-16T03:24:57.903Z,23.00
2022-08-16T03:27:30.809Z,23.00
2022-08-16T03:30:16.396Z,23.00
2022-08-16T03:32:51.650Z,23.00
2022-08-16T03:35:23.251Z,23.00
2022-08-16T03:38:03.231Z,23.00
2022-08-16T03:40:37.340Z,23.00
2022-08-16T03:43:20.483Z,23.00
2022-08-16T03:45:53.209Z,23.00
2022-08-16T03:48:37.212Z,23.00
2022-08-16T03:51:13.749Z,23.10
2022-08-16T03:54:00.968Z,23.20
2022-08-16T03:56:30.571Z,23.20
2022-08-16T04:01:30.594Z,23.30
2022-08-16T04:04:00.278Z,23.30
2022-08-16T04:06:29.090Z,23.30
2022-08-16T04:08:56.274Z,23.30
2022-08-16T04:11:24.620Z,23.30
2022-08-16T04:14:00.301Z,23.20
2022-08-16T04:16:41.953Z,23.20
2022-08-16T04:19:31.805Z,23.20
2022-08-16T04:22:00.848Z,23.20
2022-08-16T04:24:32.930Z,23.20
2022-08-16T04:27:01.165Z,23.20
2022-08-16T04:29:44.194Z,23.30
2022-08-16T04:32:14.428Z,23.30
2022-08-16T04:34:44.250Z,23.20
2022-08-16T04:37:12.815Z,23.20
2022-08-16T04:39:47.339Z,23.20
2022-08-16T04:42:25.848Z,23.20
2022-08-16T04:44:56.111Z,23.20
2022-08-16T04:47:31.462Z,23.20
2022-08-16T04:50:09.961Z,23.20
2022-08-16T04:52:38.422Z,23.30
2022-08-16T04:55:15.204Z,23.30
2022-08-16T04:57:44.871Z,23.30
2022-08-16T05:00:30.579Z,23.30
2022-08-16T05:03:08.528Z,23.30
2022-08-16T05:05:44.832Z,23.40
2022-08-16T05:08:29.526Z,23.50
2022-08-16T05:11:08.197Z,23.50
2022-08-16T05:13:40.474Z,23.60
2022-08-16T05:16:30.509Z,23.50
2022-08-16T05:19:05.339Z,23.60
2022-08-16T05:22:00.028Z,23.60
2022-08-16T05:24:27.128Z,23.80
2022-08-16T05:26:54.495Z,23.80
2022-08-16T05:29:59.313Z,23.80
2022-08-16T05:32:32.850Z,23.80
2022-08-16T05:35:07.825Z,23.90
2022-08-16T05:37:42.017Z,23.90
2022-08-16T05:40:13.142Z,23.90
2022-08-16T05:42:46.036Z,24.00
2022-08-16T05:45:13.442Z,24.10
2022-08-16T05:47:49.591Z,24.10
2022-08-16T05:50:34.488Z,24.20
2022-08-16T05:53:03.743Z,24.30
2022-08-16T05:55:40.833Z,24.30
2022-08-16T05:58:08.936Z,24.20
2022-08-16T06:00:56.634Z,24.30
2022-08-16T06:03:24.686Z,24.30
2022-08-16T06:06:02.313Z,24.50
2022-08-16T06:08:42.317Z,24.50
2022-08-16T06:11:15.747Z,24.60
2022-08-16T06:13:49.187Z,24.70
2022-08-16T06:16:22.466Z,24.60
2022-08-16T06:18:55.148Z,24.60
2022-08-16T06:21:23.752Z,24.60
2022-08-16T06:24:01.119Z,24.60
2022-08-16T06:29:04.077Z,25.00
2022-08-16T06:31:46.606Z,25.10
2022-08-16T06:34:53.262Z,25.20
2022-08-16T06:37:04.173Z,25.40
2022-08-16T06:39:46.683Z,25.40
2022-08-16T06:42:47.653Z,25.40
2022-08-16T06:45:50.402Z,25.40
2022-08-16T06:48:32.817Z,25.40
2022-08-16T06:51:03.284Z,25.60
2022-08-16T06:53:34.870Z,25.90
2022-08-16T06:56:06.050Z,26.10
2022-08-16T06:58:53.777Z,26.20
2022-08-16T07:49:57.973Z,29.60
2022-08-16T07:52:29.845Z,29.70
2022-08-16T07:54:58.408Z,30.10
2022-08-16T07:57:25.549Z,30.70
2022-08-16T07:59:57.238Z,30.80
2022-08-16T08:02:27.441Z,30.90
2022-08-16T08:04:57.709Z,30.80
2022-08-16T08:07:27.596Z,30.50
2022-08-16T08:09:56.327Z,30.40
2022-08-16T08:12:32.565Z,30.50
2022-08-16T08:15:09.911Z,30.90
2022-08-16T08:17:42.757Z,30.80
2022-08-16T08:20:26.053Z,30.80
2022-08-16T08:23:01.098Z,31.00
2022-08-16T08:25:53.932Z,31.10
2022-08-16T09:45:10.524Z,34.10
2022-08-16T09:47:57.121Z,34.00
2022-08-16T09:50:36.966Z,34.80
2022-08-16T09:53:15.298Z,36.00
2022-08-16T09:55:54.079Z,35.90
2022-08-16T09:58:40.482Z,36.00
2022-08-16T10:01:13.033Z,35.70
2022-08-16T10:04:01.752Z,36.10
2022-08-16T10:06:33.950Z,36.40
2022-08-16T10:09:05.330Z,36.70
2022-08-16T10:11:55.787Z,36.80
2022-08-16T10:14:24.677Z,36.50
2022-08-16T10:17:04.382Z,36.20
2022-08-16T10:19:31.906Z,36.20
2022-08-16T10:22:04.603Z,36.20
2022-08-16T10:24:33.505Z,36.40
2022-08-16T10:27:25.246Z,36.70
2022-08-16T10:29:59.910Z,36.70
2022-08-16T10:32:30.529Z,36.90
2022-08-16T10:34:58.245Z,37.10
2022-08-16T10:37:32.475Z,36.90
2022-08-16T10:40:04.955Z,36.90
2022-08-16T10:42:31.992Z,37.20
2022-08-16T10:44:58.893Z,37.10
2022-08-16T10:47:26.520Z,37.10
2022-08-16T10:49:55.939Z,37.30
2022-08-16T10:52:24.387Z,37.90
2022-08-16T10:54:59.180Z,37.90
2022-08-16T10:57:32.693Z,37.70
2022-08-16T11:00:01.125Z,37.90
2022-08-16T11:02:57.794Z,38.00
2022-08-16T11:05:17.364Z,37.70
2022-08-16T11:07:52.073Z,37.70
2022-08-16T11:13:57.314Z,38.00
2022-08-16T11:16:01.465Z,38.00
2022-08-16T11:18:54.757Z,37.40
2022-08-16T11:21:29.199Z,37.10
2022-08-16T11:23:58.628Z,37.00
2022-08-16T11:26:26.104Z,37.10
2022-08-16T11:29:13.198Z,37.20
2022-08-16T11:31:45.415Z,37.00
2022-08-16T11:34:16.761Z,36.90
2022-08-16T11:36:53.736Z,37.20
2022-08-16T11:39:27.434Z,37.00
2022-08-16T11:41:55.409Z,36.90
2022-08-16T11:44:52.015Z,36.90
2022-08-16T11:47:09.944Z,37.10
2022-08-16T11:49:36.986Z,37.60
2022-08-16T11:52:04.043Z,37.60
2022-08-16T11:54:36.114Z,37.20
2022-08-16T11:57:04.130Z,37.00
2022-08-16T11:59:40.045Z,37.00
2022-08-16T12:02:31.209Z,36.50
2022-08-16T12:04:55.976Z,36.00
2022-08-16T12:07:31.594Z,35.30
2022-08-16T12:10:01.329Z,35.10
2022-08-16T12:12:29.262Z,35.20
2022-08-16T12:15:00.579Z,35.40
2022-08-16T12:17:31.724Z,35.70
2022-08-16T12:20:00.591Z,35.60
2022-08-16T12:22:28.194Z,35.70
2022-08-16T12:24:55.317Z,36.30
2022-08-16T12:27:24.221Z,36.40
2022-08-16T12:29:58.569Z,36.60
2022-08-16T12:32:35.732Z,36.30
2022-08-16T12:35:07.633Z,36.10
2022-08-16T12:37:35.081Z,35.70
2022-08-16T12:40:02.449Z,35.50
2022-08-16T12:42:34.285Z,35.40
2022-08-16T12:45:03.818Z,35.40
2022-08-16T12:47:49.911Z,35.40
2022-08-16T12:50:18.700Z,35.60
2022-08-16T12:52:52.600Z,35.50
2022-08-16T12:55:20.861Z,35.00
2022-08-16T12:57:58.308Z,34.70
2022-08-16T13:00:33.025Z,34.40
2022-08-16T13:03:01.395Z,34.30
2022-08-16T13:05:28.742Z,33.90
2022-08-16T13:07:58.456Z,33.80
2022-08-16T13:10:32.191Z,33.50
2022-08-16T13:13:06.258Z,33.10
2022-08-16T13:15:36.268Z,33.10
2022-08-16T13:18:32.516Z,33.00
2022-08-16T13:21:01.549Z,33.00
2022-08-16T13:23:30.058Z,32.80
2022-08-16T13:25:57.553Z,32.60
2022-08-16T13:28:24.728Z,32.50
2022-08-16T13:30:53.346Z,32.50
2022-08-16T13:33:29.594Z,32.40
2022-08-16T13:35:58.533Z,32.40
2022-08-16T13:38:36.959Z,32.50
2022-08-16T13:41:12.867Z,32.50
2022-08-16T13:43:42.176Z,32.50
2022-08-16T13:46:09.285Z,32.40
2022-08-16T13:48:43.966Z,32.40
2022-08-16T13:51:15.698Z,32.40
2022-08-16T13:53:45.909Z,32.30
2022-08-16T13:56:25.069Z,32.30
2022-08-16T13:58:54.990Z,32.40
2022-08-16T14:01:22.943Z,32.30
2022-08-16T14:03:54.512Z,32.30
2022-08-16T14:06:21.694Z,32.30
2022-08-16T14:08:50.295Z,32.30
2022-08-16T14:11:33.613Z,32.40
2022-08-16T14:14:00.862Z,32.30
2022-08-16T14:16:33.683Z,32.20
2022-08-16T14:19:02.121Z,32.20
2022-08-16T14:21:34.877Z,32.10
2022-08-16T14:24:07.914Z,32.20
2022-08-16T14:26:49.999Z,32.20
2022-08-16T14:31:53.753Z,32.20
2022-08-16T14:34:21.661Z,32.20
2022-08-16T14:36:53.318Z,32.30
2022-08-16T14:39:22.238Z,32.20
2022-08-16T14:41:49.366Z,32.20
2022-08-16T14:44:20.513Z,32.30
2022-08-16T14:46:47.455Z,32.20
2022-08-16T14:49:14.607Z,32.30
2022-08-16T14:51:46.220Z,32.30
2022-08-16T14:54:15.100Z,32.30
2022-08-16T14:56:46.957Z,32.20
2022-08-16T14:59:21.650Z,32.20
2022-08-16T15:01:58.195Z,32.20
2022-08-16T15:04:40.068Z,32.10
2022-08-16T15:07:15.363Z,32.10
2022-08-16T15:09:59.854Z,32.00
2022-08-16T15:12:30.636Z,32.10
2022-08-16T15:14:58.632Z,32.10
2022-08-16T15:17:33.850Z,32.20
2022-08-16T15:20:08.596Z,32.10
2022-08-16T15:22:40.569Z,32.10
2022-08-16T15:25:09.181Z,32.20
2022-08-16T15:27:36.913Z,32.20
2022-08-16T15:30:47.869Z,32.20
2022-08-16T15:32:57.269Z,32.20
2022-08-16T15:35:25.151Z,32.10
2022-08-16T15:37:54.735Z,32.00
2022-08-16T15:40:32.321Z,32.00
2022-08-16T15:43:02.538Z,32.00
2022-08-16T15:45:48.403Z,32.10
2022-08-16T15:48:29.145Z,32.10
2022-08-16T15:50:57.645Z,32.00
2022-08-16T15:53:27.396Z,31.90
2022-08-16T15:55:59.090Z,31.70
2022-08-16T15:58:35.201Z,31.70
2022-08-16T16:01:06.049Z,31.80
2022-08-16T16:03:34.500Z,31.80
2022-08-16T16:06:02.857Z,31.70
2022-08-16T16:08:31.061Z,31.60
2022-08-16T16:11:09.731Z,31.60
2022-08-16T16:13:39.002Z,31.50
2022-08-16T16:16:16.561Z,31.40
2022-08-16T16:18:48.989Z,31.40
2022-08-16T16:21:20.303Z,31.40
2022-08-16T16:23:53.071Z,31.30
2022-08-16T16:26:22.343Z,31.20
2022-08-16T16:29:08.213Z,31.10
2022-08-16T16:31:40.835Z,31.10
2022-08-16T16:34:11.226Z,31.00
2022-08-16T16:36:39.967Z,31.00
2022-08-16T16:39:11.068Z,30.90
2022-08-16T16:41:40.256Z,30.90
2022-08-16T16:44:09.336Z,30.90
2022-08-16T16:46:56.705Z,30.80
2022-08-16T16:49:25.014Z,30.90
2022-08-16T16:51:53.656Z,30.80
2022-08-16T16:54:35.730Z,30.80
2022-08-16T16:57:03.700Z,30.70
2022-08-16T16:59:30.970Z,30.70
2022-08-16T17:02:38.661Z,30.70
2022-08-16T17:04:47.324Z,30.70
2022-08-16T17:07:14.375Z,30.60
2022-08-16T17:09:41.565Z,30.60
2022-08-16T17:12:22.642Z,30.60
2022-08-16T17:14:58.642Z,30.50
2022-08-16T17:17:26.474Z,30.50
2022-08-16T17:19:54.183Z,30.40
2022-08-16T17:22:22.464Z,30.40
2022-08-16T17:24:52.674Z,30.30
2022-08-16T17:27:33.421Z,30.20
2022-08-16T17:30:02.719Z,30.20
2022-08-16T17:32:47.412Z,30.10
2022-08-16T17:35:18.455Z,30.10
2022-08-16T17:37:51.613Z,30.10
2022-08-16T17:40:37.295Z,30.00
2022-08-16T17:43:12.670Z,30.00
2022-08-16T17:45:40.517Z,29.90
2022-08-16T17:48:07.676Z,29.80
2022-08-16T17:50:34.691Z,29.80
2022-08-16T17:53:03.076Z,29.70
2022-08-16T17:55:31.775Z,29.70
2022-08-16T17:57:59.002Z,29.60
2022-08-16T18:00:27.508Z,29.60
2022-08-16T18:02:58.595Z,29.50
2022-08-16T18:05:26.690Z,29.40
2022-08-16T18:07:55.205Z,29.40
2022-08-16T18:10:32.784Z,29.30
2022-08-16T18:13:01.233Z,29.20
2022-08-16T18:15:28.589Z,29.20
2022-08-16T18:17:55.554Z,29.10
2022-08-16T18:20:41.673Z,29.10
2022-08-16T18:23:10.590Z,29.00
2022-08-16T18:25:44.732Z,29.00
2022-08-16T18:28:12.299Z,29.00
2022-08-16T18:30:39.715Z,29.00
2022-08-16T18:33:07.261Z,28.90
2022-08-16T18:35:34.491Z,28.80
2022-08-16T18:38:01.664Z,28.80
2022-08-16T18:40:28.812Z,28.80
2022-08-16T18:43:00.148Z,28.80
2022-08-16T18:45:36.628Z,28.70
2022-08-16T18:48:04.506Z,28.70
2022-08-16T18:51:03.139Z,28.60
2022-08-16T18:53:19.646Z,28.50
2022-08-16T18:55:47.395Z,28.50
2022-08-16T18:58:16.450Z,28.40
2022-08-16T19:00:54.118Z,28.40
2022-08-16T19:03:26.019Z,28.40
2022-08-16T19:06:04.630Z,28.40
2022-08-16T19:08:32.291Z,28.30
2022-08-16T19:10:59.857Z,28.30
2022-08-16T19:13:28.146Z,28.30
2022-08-16T19:15:56.322Z,28.30
2022-08-16T19:18:23.954Z,28.20
2022-08-16T19:20:51.527Z,28.20
2022-08-16T19:23:20.433Z,28.10
2022-08-16T19:25:52.790Z,28.00
2022-08-16T19:28:51.204Z,28.00
2022-08-16T19:31:17.300Z,27.90
2022-08-16T19:33:53.731Z,27.90
2022-08-16T19:36:32.103Z,27.90
2022-08-16T19:39:04.631Z,27.80
2022-08-16T19:41:34.220Z,27.80
2022-08-16T19:44:01.162Z,27.70
2022-08-16T19:46:28.169Z,27.70
2022-08-16T19:48:55.116Z,27.70
2022-08-16T19:53:49.504Z,27.60
2022-08-16T19:56:16.538Z,27.50
2022-08-16T19:59:02.067Z,27.50
2022-08-16T20:01:30.680Z,27.50
2022-08-16T20:03:57.732Z,27.40
2022-08-16T20:09:03.053Z,27.30
2022-08-16T20:11:30.107Z,27.20
2022-08-16T20:13:57.053Z,27.20
2022-08-16T20:16:24.138Z,27.10
2022-08-16T20:18:51.471Z,27.10
2022-08-16T20:21:19.323Z,27.10
2022-08-16T20:23:46.371Z,27.00
2022-08-16T20:26:13.388Z,26.90
2022-08-16T20:28:52.559Z,26.90
2022-08-16T20:31:25.030Z,26.80
2022-08-16T20:33:53.138Z,26.70
2022-08-16T20:36:20.839Z,26.60
2022-08-16T20:38:48.596Z,26.60
2022-08-16T20:41:16.234Z,26.60
2022-08-16T20:43:43.490Z,26.60
2022-08-16T20:46:10.776Z,26.60
2022-08-16T20:48:37.863Z,26.50
2022-08-16T20:51:06.876Z,26.50
2022-08-16T20:53:34.142Z,26.50
2022-08-16T20:56:01.109Z,26.40
2022-08-16T20:58:28.203Z,26.40
2022-08-16T21:00:55.736Z,26.40
2022-08-16T21:03:22.947Z,26.40
2022-08-16T21:05:50.342Z,26.40
2022-08-16T21:08:50.695Z,26.30
2022-08-16T21:11:05.802Z,26.30
2022-08-16T21:13:33.126Z,26.30
2022-08-16T21:16:01.832Z,26.20
2022-08-16T21:18:29.032Z,26.20
2022-08-16T21:20:56.443Z,26.20
2022-08-16T21:23:23.435Z,26.10
2022-08-16T21:25:58.840Z,26.10
2022-08-16T21:28:40.165Z,26.10
2022-08-16T21:31:12.865Z,26.10
2022-08-16T21:33:40.221Z,26.00
2022-08-16T21:36:07.341Z,26.00
2022-08-16T21:38:34.542Z,26.00
2022-08-16T21:41:05.475Z,26.00
2022-08-16T21:43:33.612Z,26.00
2022-08-16T21:46:04.846Z,25.90
2022-08-16T21:48:35.177Z,25.90
2022-08-16T21:51:07.504Z,25.90
2022-08-16T21:53:35.195Z,25.90
2022-08-16T21:56:02.579Z,25.80
2022-08-16T21:58:30.217Z,25.80
2022-08-16T22:00:57.571Z,25.80
2022-08-16T22:03:24.786Z,25.80
2022-08-16T22:06:11.526Z,25.80
2022-08-16T22:08:49.643Z,25.80
2022-08-16T22:11:21.705Z,25.70
2022-08-16T22:13:58.155Z,25.70
2022-08-16T22:16:27.616Z,25.70
2022-08-16T22:18:54.691Z,25.70
2022-08-16T22:21:21.936Z,25.70
2022-08-16T22:23:56.701Z,25.60
2022-08-16T22:26:30.622Z,25.60
2022-08-16T22:28:59.465Z,25.60
2022-08-16T22:31:27.542Z,25.60
2022-08-16T22:33:56.688Z,25.50
2022-08-16T22:36:28.052Z,25.50
2022-08-16T22:38:59.966Z,25.50
2022-08-16T22:41:28.023Z,25.50
2022-08-16T22:43:55.291Z,25.50
2022-08-16T22:46:22.289Z,25.50
2022-08-16T22:48:50.692Z,25.50
2022-08-16T22:51:18.354Z,25.50
2022-08-16T22:53:45.747Z,25.50
2022-08-16T22:56:12.834Z,25.50
2022-08-16T22:58:39.847Z,25.50
2022-08-16T23:01:08.236Z,25.50
2022-08-16T23:03:35.892Z,25.50
2022-08-16T23:06:03.555Z,25.50
2022-08-16T23:08:39.315Z,25.50
2022-08-16T23:11:09.269Z,25.50
2022-08-16T23:16:11.099Z,25.40
2022-08-16T23:18:39.543Z,25.40
2022-08-16T23:21:08.402Z,25.40
2022-08-16T23:26:02.862Z,25.30
2022-08-16T23:28:49.925Z,25.30
2022-08-16T23:31:16.919Z,25.30
2022-08-16T23:33:43.946Z,25.30
2022-08-16T23:36:11.217Z,25.20
2022-08-16T23:38:39.632Z,25.20
2022-08-16T23:41:09.678Z,25.20
2022-08-16T23:43:41.944Z,25.20
2022-08-16T23:46:11.830Z,25.10
2022-08-16T23:49:59.293Z,25.20
2022-08-16T23:51:26.082Z,25.10
2022-08-16T23:53:55.807Z,25.10
2022-08-16T23:56:22.863Z,25.00
2022-08-16T23:58:54.346Z,25.00
